Terminal Aerodrome Forecast
Issued by NWS St Louis, MO

Home | Current Version | Previous Version | Text Only | Print | Product List | Glossary On
Versions: 1 2 3 4 5 6 7 8 9 10 11 12 13 14 15 16 17 18 19
135
FTUS43 KLSX 181138
TAFCOU
TAF
KCOU 181138Z 1812/1912 25010G17KT P6SM VCSH BKN025
     FM181400 33017G28KT 6SM -SHRA VCTS OVC015CB
     FM181800 33021G37KT 4SM -SHRA OVC020
     FM182100 32019G34KT P6SM SCT030 BKN100
     FM190300 31012KT P6SM SKC=

USA.gov is the U.S. government's official web portal to all federal, state and local government web resources and services.